createdAt,value
2023-02-01T00:01:25.205Z,100.00
2023-02-01T00:03:53.365Z,100.00
2023-02-01T00:06:21.567Z,100.00
2023-02-01T00:08:49.671Z,100.00
2023-02-01T00:11:17.755Z,100.00
2023-02-01T00:13:45.920Z,100.00
2023-02-01T00:16:17.930Z,100.00
2023-02-01T00:18:46.768Z,100.00
2023-02-01T00:21:15.424Z,100.00
2023-02-01T00:23:43.776Z,100.00
2023-02-01T00:26:16.727Z,100.00
2023-02-01T00:28:44.884Z,100.00
2023-02-01T00:31:13.097Z,100.00
2023-02-01T00:33:42.840Z,100.00
2023-02-01T00:36:11.957Z,100.00
2023-02-01T00:38:40.718Z,100.00
2023-02-01T00:41:12.026Z,100.00
2023-02-01T00:43:41.219Z,100.00
2023-02-01T00:46:09.415Z,100.00
2023-02-01T00:48:37.793Z,100.00
2023-02-01T00:51:09.688Z,100.00
2023-02-01T00:53:37.751Z,100.00
2023-02-01T00:56:07.233Z,100.00
2023-02-01T00:58:35.739Z,100.00
2023-02-01T01:01:05.987Z,100.00
2023-02-01T01:03:35.407Z,100.00
2023-02-01T01:06:06.232Z,100.00
2023-02-01T01:08:36.234Z,100.00
2023-02-01T01:11:07.152Z,100.00
2023-02-01T01:13:35.355Z,100.00
2023-02-01T01:16:04.744Z,100.00
2023-02-01T01:18:34.086Z,100.00
2023-02-01T01:21:02.853Z,100.00
2023-02-01T01:23:31.078Z,100.00
2023-02-01T01:26:00.612Z,100.00
2023-02-01T01:28:28.765Z,100.00
2023-02-01T01:30:56.946Z,100.00
2023-02-01T01:33:25.010Z,100.00
2023-02-01T01:35:53.113Z,100.00
2023-02-01T01:38:21.272Z,100.00
2023-02-01T01:40:50.801Z,100.00
2023-02-01T01:43:23.475Z,100.00
2023-02-01T01:45:53.094Z,100.00
2023-02-01T01:48:26.038Z,100.00
2023-02-01T01:50:59.599Z,100.00
2023-02-01T01:53:32.824Z,100.00
2023-02-01T01:56:02.583Z,100.00
2023-02-01T01:58:35.618Z,100.00
2023-02-01T02:01:03.803Z,100.00
2023-02-01T02:03:37.013Z,100.00
2023-02-01T02:06:14.728Z,100.00
2023-02-01T02:08:42.906Z,100.00
2023-02-01T02:11:14.137Z,100.00
2023-02-01T02:13:45.435Z,100.00
2023-02-01T02:16:33.060Z,100.00
2023-02-01T02:19:30.464Z,100.00
2023-02-01T02:22:16.824Z,100.00
2023-02-01T02:25:20.175Z,100.00
2023-02-01T02:27:59.582Z,100.00
2023-02-01T02:30:45.132Z,100.00
2023-02-01T02:33:44.107Z,100.00
2023-02-01T02:36:19.059Z,100.00
2023-02-01T02:38:55.609Z,100.00
2023-02-01T02:41:50.620Z,100.00
2023-02-01T02:44:46.090Z,100.00
2023-02-01T02:47:26.998Z,100.00
2023-02-01T02:50:18.387Z,100.00
2023-02-01T02:53:10.741Z,100.00
2023-02-01T02:55:41.569Z,100.00
2023-02-01T02:58:30.826Z,100.00
2023-02-01T03:01:21.498Z,100.00
2023-02-01T03:04:11.212Z,100.00
2023-02-01T03:06:43.447Z,100.00
2023-02-01T03:09:18.658Z,100.00
2023-02-01T03:12:06.987Z,100.00
2023-02-01T03:14:38.304Z,100.00
2023-02-01T03:17:13.301Z,100.00
2023-02-01T03:19:49.511Z,100.00
2023-02-01T03:22:23.275Z,100.00
2023-02-01T03:24:56.369Z,100.00
2023-02-01T03:27:29.664Z,100.00
2023-02-01T03:30:03.883Z,100.00
2023-02-01T03:32:52.230Z,100.00
2023-02-01T03:35:25.852Z,100.00
2023-02-01T03:37:59.237Z,100.00
2023-02-01T03:40:30.149Z,100.00
2023-02-01T03:43:01.877Z,100.00
2023-02-01T03:45:36.068Z,100.00
2023-02-01T03:48:06.664Z,100.00
2023-02-01T03:50:38.739Z,100.00
2023-02-01T03:53:14.483Z,100.00
2023-02-01T03:55:44.043Z,100.00
2023-02-01T03:58:15.840Z,100.00
2023-02-01T04:00:47.009Z,100.00
2023-02-01T04:03:15.460Z,100.00
2023-02-01T04:05:43.548Z,100.00
2023-02-01T04:08:13.532Z,100.00
2023-02-01T04:10:41.624Z,100.00
2023-02-01T04:13:10.108Z,100.00
2023-02-01T04:15:38.220Z,100.00
2023-02-01T04:18:06.834Z,100.00
2023-02-01T04:20:34.886Z,100.00
2023-02-01T04:23:04.152Z,100.00
2023-02-01T04:25:33.625Z,100.00
2023-02-01T04:28:01.692Z,100.00
2023-02-01T04:30:30.377Z,100.00
2023-02-01T04:32:58.478Z,100.00
2023-02-01T04:35:26.550Z,100.00
2023-02-01T04:37:54.641Z,100.00
2023-02-01T04:40:22.949Z,100.00
2023-02-01T04:42:52.556Z,100.00
2023-02-01T04:45:20.671Z,100.00
2023-02-01T04:47:49.825Z,100.00
2023-02-01T04:50:18.664Z,100.00
2023-02-01T04:52:47.391Z,100.00
2023-02-01T04:55:15.601Z,100.00
2023-02-01T04:57:43.669Z,100.00
2023-02-01T05:00:14.421Z,100.00
2023-02-01T05:02:42.553Z,100.00
2023-02-01T05:05:11.268Z,100.00
2023-02-01T05:07:39.355Z,100.00
2023-02-01T05:10:08.320Z,100.00
2023-02-01T05:12:53.854Z,100.00
2023-02-01T05:15:23.297Z,100.00
2023-02-01T05:17:51.395Z,100.00
2023-02-01T05:20:19.628Z,100.00
2023-02-01T05:22:47.676Z,100.00
2023-02-01T05:25:16.211Z,100.00
2023-02-01T05:27:44.865Z,100.00
2023-02-01T05:30:13.812Z,100.00
2023-02-01T05:32:43.223Z,100.00
2023-02-01T05:35:11.437Z,100.00
2023-02-01T05:37:39.574Z,100.00
2023-02-01T05:40:09.210Z,100.00
2023-02-01T05:42:37.403Z,100.00
2023-02-01T05:45:08.705Z,100.00
2023-02-01T05:47:36.769Z,100.00
2023-02-01T05:50:07.692Z,100.00
2023-02-01T05:52:35.955Z,100.00
2023-02-01T05:55:04.096Z,100.00
2023-02-01T05:57:32.219Z,100.00
2023-02-01T06:00:00.800Z,100.00
2023-02-01T06:02:29.156Z,100.00
2023-02-01T06:04:57.309Z,100.00
2023-02-01T06:07:28.713Z,100.00
2023-02-01T06:09:57.726Z,100.00
2023-02-01T06:12:25.854Z,100.00
2023-02-01T06:14:54.008Z,100.00
2023-02-01T06:17:22.214Z,100.00
2023-02-01T06:19:50.586Z,100.00
2023-02-01T06:22:19.323Z,100.00
2023-02-01T06:24:48.857Z,100.00
2023-02-01T06:27:17.332Z,100.00
2023-02-01T06:29:45.454Z,100.00
2023-02-01T06:32:13.559Z,100.00
2023-02-01T06:34:41.739Z,100.00
2023-02-01T06:37:09.819Z,100.00
2023-02-01T06:39:37.901Z,100.00
2023-02-01T06:42:07.464Z,100.00
2023-02-01T06:44:35.577Z,100.00
2023-02-01T06:47:07.305Z,100.00
2023-02-01T06:49:37.023Z,100.00
2023-02-01T06:52:05.319Z,100.00
2023-02-01T06:54:35.183Z,100.00
2023-02-01T06:57:03.278Z,100.00
2023-02-01T06:59:32.735Z,100.00
2023-02-01T07:02:00.992Z,100.00
2023-02-01T07:04:29.194Z,100.00
2023-02-01T07:06:57.302Z,100.00
2023-02-01T07:09:25.587Z,100.00
2023-02-01T07:11:53.679Z,100.00
2023-02-01T07:14:21.793Z,100.00
2023-02-01T07:16:51.918Z,100.00
2023-02-01T07:19:20.025Z,100.00
2023-02-01T07:21:48.245Z,100.00
2023-02-01T07:24:16.790Z,100.00
2023-02-01T07:26:44.982Z,100.00
2023-02-01T07:29:13.201Z,99.31
2023-02-01T07:31:41.392Z,96.32
2023-02-01T07:34:10.837Z,93.91
2023-02-01T07:36:39.625Z,92.34
2023-02-01T07:39:07.707Z,92.79
2023-02-01T07:41:35.957Z,90.84
2023-02-01T07:44:05.570Z,90.21
2023-02-01T07:46:33.724Z,89.72
2023-02-01T07:49:01.946Z,87.40
2023-02-01T07:51:31.439Z,86.53
2023-02-01T07:53:59.937Z,82.11
2023-02-01T07:56:28.037Z,80.48
2023-02-01T07:58:57.182Z,78.53
2023-02-01T08:01:26.483Z,72.96
2023-02-01T08:03:56.935Z,70.05
2023-02-01T08:06:26.187Z,69.24
2023-02-01T08:08:56.272Z,67.25
2023-02-01T08:11:25.940Z,69.66
2023-02-01T08:13:54.597Z,66.86
2023-02-01T08:16:24.381Z,63.96
2023-02-01T08:18:53.317Z,63.69
2023-02-01T08:21:24.136Z,61.80
2023-02-01T08:23:52.601Z,61.70
2023-02-01T08:26:24.267Z,59.48
2023-02-01T08:28:54.399Z,57.86
2023-02-01T08:31:24.293Z,57.23
2023-02-01T08:33:54.239Z,55.79
2023-02-01T08:36:23.481Z,55.44
2023-02-01T08:38:52.069Z,52.26
2023-02-01T08:41:23.585Z,50.28
2023-02-01T08:43:52.116Z,50.33
2023-02-01T08:46:20.258Z,50.68
2023-02-01T08:48:49.277Z,49.90
2023-02-01T08:51:19.376Z,48.57
2023-02-01T08:53:48.263Z,48.77
2023-02-01T08:56:18.490Z,46.43
2023-02-01T08:58:48.012Z,46.53
2023-02-01T09:01:18.319Z,46.48
2023-02-01T09:03:46.813Z,45.83
2023-02-01T09:06:17.250Z,45.69
2023-02-01T09:08:45.568Z,45.58
2023-02-01T09:11:15.638Z,44.97
2023-02-01T09:13:43.894Z,43.89
2023-02-01T09:16:13.523Z,42.78
2023-02-01T09:18:50.655Z,42.49
2023-02-01T09:21:30.321Z,43.25
2023-02-01T09:23:58.486Z,41.86
2023-02-01T09:26:32.075Z,41.34
2023-02-01T09:29:01.252Z,43.27
2023-02-01T09:31:31.139Z,41.82
2023-02-01T09:33:59.360Z,41.81
2023-02-01T09:36:30.002Z,40.57
2023-02-01T09:38:59.043Z,40.22
2023-02-01T09:41:40.157Z,40.23
2023-02-01T09:44:20.346Z,40.94
2023-02-01T09:46:50.042Z,40.97
2023-02-01T09:49:23.795Z,42.70
2023-02-01T09:51:54.733Z,41.16
2023-02-01T09:54:26.753Z,41.33
2023-02-01T09:56:58.419Z,40.57
2023-02-01T09:59:35.692Z,41.23
2023-02-01T10:02:13.190Z,43.13
2023-02-01T10:04:41.479Z,42.25
2023-02-01T10:07:18.991Z,41.25
2023-02-01T10:10:00.358Z,42.86
2023-02-01T10:13:07.370Z,43.32
2023-02-01T10:15:54.106Z,42.74
2023-02-01T10:18:38.799Z,43.25
2023-02-01T10:21:15.444Z,41.52
2023-02-01T10:24:00.980Z,41.42
2023-02-01T10:26:35.168Z,41.92
2023-02-01T10:29:06.734Z,39.93
2023-02-01T10:31:39.616Z,40.74
2023-02-01T10:34:22.663Z,38.63
2023-02-01T10:36:56.505Z,38.24
2023-02-01T10:39:25.532Z,36.79
2023-02-01T10:41:54.293Z,39.31
2023-02-01T10:44:27.990Z,34.75
2023-02-01T10:46:56.218Z,34.98
2023-02-01T10:49:36.090Z,34.93
2023-02-01T10:52:14.124Z,34.19
2023-02-01T10:54:43.161Z,32.94
2023-02-01T10:57:12.395Z,32.07
2023-02-01T10:59:40.453Z,32.08
2023-02-01T11:02:29.052Z,31.91
2023-02-01T11:05:11.197Z,32.71
2023-02-01T11:07:41.075Z,33.82
2023-02-01T11:10:38.613Z,33.21
2023-02-01T11:13:07.378Z,33.17
2023-02-01T11:15:35.420Z,32.23
2023-02-01T11:18:18.151Z,33.71
2023-02-01T11:20:50.371Z,33.65
2023-02-01T11:23:21.083Z,34.36
2023-02-01T11:25:54.331Z,34.34
2023-02-01T11:28:25.826Z,34.95
2023-02-01T11:30:57.174Z,34.00
2023-02-01T11:33:30.884Z,34.39
2023-02-01T11:36:00.655Z,34.55
2023-02-01T11:38:31.448Z,34.75
2023-02-01T11:41:15.410Z,33.58
2023-02-01T11:43:59.436Z,34.73
2023-02-01T11:46:33.943Z,34.83
2023-02-01T11:49:21.740Z,33.84
2023-02-01T11:52:06.076Z,33.13
2023-02-01T11:54:48.849Z,31.77
2023-02-01T11:57:32.410Z,31.85
2023-02-01T12:00:16.825Z,30.95
2023-02-01T12:03:26.913Z,29.02
2023-02-01T12:06:01.464Z,27.42
2023-02-01T12:08:49.490Z,28.39
2023-02-01T12:11:30.782Z,27.89
2023-02-01T12:14:10.968Z,25.73
2023-02-01T12:16:48.298Z,25.08
2023-02-01T12:19:31.919Z,26.57
2023-02-01T12:22:14.515Z,26.69
2023-02-01T12:25:11.469Z,26.67
2023-02-01T12:27:59.810Z,26.20
2023-02-01T12:30:54.321Z,25.17
2023-02-01T12:33:34.140Z,25.33
2023-02-01T12:36:14.930Z,24.73
2023-02-01T12:38:54.298Z,24.77
2023-02-01T12:41:37.366Z,23.92
2023-02-01T12:44:10.763Z,24.61
2023-02-01T12:46:45.821Z,25.87
2023-02-01T12:49:19.661Z,25.64
2023-02-01T12:51:52.134Z,25.40
2023-02-01T12:54:24.179Z,25.17
2023-02-01T12:56:58.430Z,24.47
2023-02-01T12:59:34.027Z,23.74
2023-02-01T13:02:11.059Z,23.79
2023-02-01T13:04:48.800Z,24.91
2023-02-01T13:07:21.342Z,24.59
2023-02-01T13:09:56.715Z,23.57
2023-02-01T13:12:33.191Z,24.83
2023-02-01T13:15:06.975Z,24.87
2023-02-01T13:17:36.205Z,25.05
2023-02-01T13:20:09.115Z,25.11
2023-02-01T13:22:42.331Z,26.65
2023-02-01T13:25:15.967Z,26.05
2023-02-01T13:27:45.824Z,25.38
2023-02-01T13:30:21.047Z,25.17
2023-02-01T13:33:52.684Z,24.55
2023-02-01T13:36:15.102Z,25.19
2023-02-01T13:39:08.317Z,27.12
2023-02-01T13:41:44.000Z,27.80
2023-02-01T13:44:21.670Z,25.53
2023-02-01T13:46:52.546Z,26.14
2023-02-01T13:49:25.119Z,27.07
2023-02-01T13:51:56.220Z,27.22
2023-02-01T13:54:31.169Z,26.57
2023-02-01T13:57:01.555Z,26.58
2023-02-01T13:59:55.893Z,28.05
2023-02-01T14:02:52.133Z,27.35
2023-02-01T14:05:57.775Z,28.23
2023-02-01T14:08:39.887Z,27.72
2023-02-01T14:11:08.209Z,27.33
2023-02-01T14:13:38.026Z,28.49
2023-02-01T14:16:18.828Z,28.51
2023-02-01T14:19:02.408Z,29.20
2023-02-01T14:21:34.316Z,28.87
2023-02-01T14:24:04.881Z,29.39
2023-02-01T14:26:47.671Z,29.55
2023-02-01T14:29:27.675Z,30.52
2023-02-01T14:32:07.192Z,29.92
2023-02-01T14:34:44.390Z,30.50
2023-02-01T14:37:25.890Z,30.42
2023-02-01T14:40:02.080Z,31.05
2023-02-01T14:42:40.730Z,32.65
2023-02-01T14:45:51.189Z,32.07
2023-02-01T14:48:48.145Z,33.06
2023-02-01T14:51:26.743Z,33.03
2023-02-01T14:53:55.251Z,34.01
2023-02-01T14:56:23.837Z,34.65
2023-02-01T14:58:58.180Z,35.98
2023-02-01T15:01:29.820Z,34.42
2023-02-01T15:04:05.595Z,34.79
2023-02-01T15:06:38.956Z,34.04
2023-02-01T15:09:12.981Z,34.14
2023-02-01T15:11:59.689Z,39.31
2023-02-01T15:14:29.314Z,34.28
2023-02-01T15:16:57.681Z,39.66
2023-02-01T15:19:29.544Z,38.52
2023-02-01T15:21:59.652Z,34.62
2023-02-01T15:24:29.494Z,35.71
2023-02-01T15:27:04.687Z,36.28
2023-02-01T15:29:35.094Z,35.25
2023-02-01T15:32:03.690Z,36.35
2023-02-01T15:37:31.551Z,37.84
2023-02-01T15:40:05.952Z,37.78
2023-02-01T15:42:34.128Z,41.08
2023-02-01T15:45:02.853Z,39.04
2023-02-01T15:47:33.960Z,41.59
2023-02-01T15:50:03.666Z,38.28
2023-02-01T15:52:38.137Z,38.15
2023-02-01T15:55:10.558Z,38.55
2023-02-01T15:57:43.271Z,39.35
2023-02-01T16:00:24.429Z,39.42
2023-02-01T16:02:58.245Z,40.65
2023-02-01T16:05:39.627Z,40.40
2023-02-01T16:08:16.158Z,41.28
2023-02-01T16:10:47.018Z,41.91
2023-02-01T16:13:16.316Z,42.01
2023-02-01T16:15:45.373Z,42.29
2023-02-01T16:18:17.673Z,41.84
2023-02-01T16:20:47.420Z,42.43
2023-02-01T16:23:16.948Z,42.19
2023-02-01T16:25:46.199Z,42.28
2023-02-01T16:28:14.840Z,43.50
2023-02-01T16:30:44.127Z,43.55
2023-02-01T16:33:24.446Z,43.37
2023-02-01T16:35:53.839Z,43.60
2023-02-01T16:38:24.645Z,43.84
2023-02-01T16:40:52.973Z,44.67
2023-02-01T16:43:25.019Z,44.33
2023-02-01T16:45:57.736Z,44.55
2023-02-01T16:48:29.417Z,45.09
2023-02-01T16:50:59.655Z,44.92
2023-02-01T16:53:31.858Z,46.25
2023-02-01T16:56:01.653Z,45.82
2023-02-01T16:58:30.152Z,45.54
2023-02-01T17:00:59.063Z,45.88
2023-02-01T17:03:27.763Z,46.88
2023-02-01T17:05:59.119Z,46.83
2023-02-01T17:08:35.127Z,46.82
2023-02-01T17:11:04.361Z,47.06
2023-02-01T17:13:33.980Z,47.33
2023-02-01T17:16:04.891Z,47.60
2023-02-01T17:18:36.609Z,47.54
2023-02-01T17:21:07.951Z,47.20
2023-02-01T17:23:40.397Z,47.34
2023-02-01T17:26:11.274Z,47.81
2023-02-01T17:28:40.030Z,49.03
2023-02-01T17:31:10.907Z,48.11
2023-02-01T17:33:39.914Z,48.23
2023-02-01T17:36:15.693Z,48.26
2023-02-01T17:38:53.886Z,47.61
2023-02-01T17:41:28.494Z,48.31
2023-02-01T17:43:57.547Z,49.31
2023-02-01T17:46:28.608Z,49.25
2023-02-01T17:48:58.397Z,50.61
2023-02-01T17:51:29.745Z,50.83
2023-02-01T17:54:01.415Z,52.13
2023-02-01T17:56:30.251Z,52.25
2023-02-01T17:58:59.298Z,52.33
2023-02-01T18:01:31.624Z,54.23
2023-02-01T18:04:00.156Z,55.47
2023-02-01T18:06:40.000Z,56.72
2023-02-01T18:09:11.047Z,57.39
2023-02-01T18:11:40.537Z,58.41
2023-02-01T18:14:13.063Z,58.35
2023-02-01T18:16:42.290Z,59.34
2023-02-01T18:19:11.488Z,58.92
2023-02-01T18:21:43.473Z,58.68
2023-02-01T18:24:16.240Z,59.19
2023-02-01T18:26:45.727Z,59.31
2023-02-01T18:29:16.880Z,59.62
2023-02-01T18:31:53.425Z,60.39
2023-02-01T18:34:27.774Z,61.56
2023-02-01T18:36:59.338Z,61.49
2023-02-01T18:39:31.326Z,63.75
2023-02-01T18:42:01.885Z,62.48
2023-02-01T18:44:34.197Z,63.46
2023-02-01T18:47:04.098Z,63.79
2023-02-01T18:49:36.742Z,65.40
2023-02-01T18:52:11.404Z,65.41
2023-02-01T18:54:57.578Z,66.68
2023-02-01T18:57:29.108Z,67.80
2023-02-01T18:59:59.512Z,67.70
2023-02-01T19:02:32.463Z,67.31
2023-02-01T19:05:02.427Z,68.85
2023-02-01T19:07:31.731Z,70.88
2023-02-01T19:10:02.857Z,71.44
2023-02-01T19:12:34.786Z,71.90
2023-02-01T19:15:05.141Z,73.30
2023-02-01T19:17:35.266Z,73.76
2023-02-01T19:20:05.820Z,74.54
2023-02-01T19:22:35.830Z,74.50
2023-02-01T19:25:08.840Z,74.68
2023-02-01T19:27:38.818Z,74.43
2023-02-01T19:30:12.856Z,74.73
2023-02-01T19:32:43.588Z,75.45
2023-02-01T19:35:20.035Z,75.79
2023-02-01T19:37:50.587Z,77.22
2023-02-01T19:40:23.354Z,77.43
2023-02-01T19:42:54.750Z,76.40
2023-02-01T19:45:25.234Z,78.35
2023-02-01T19:47:55.807Z,77.34
2023-02-01T19:50:26.636Z,76.65
2023-02-01T19:53:01.052Z,76.80
2023-02-01T19:55:32.755Z,75.39
2023-02-01T19:58:05.450Z,75.50
2023-02-01T20:00:35.478Z,74.00
2023-02-01T20:03:05.346Z,74.17
2023-02-01T20:05:34.580Z,72.67
2023-02-01T20:08:05.836Z,72.03
2023-02-01T20:10:36.876Z,72.17
2023-02-01T20:13:08.971Z,70.81
2023-02-01T20:15:40.094Z,70.06
2023-02-01T20:18:10.652Z,70.39
2023-02-01T20:20:39.829Z,70.17
2023-02-01T20:23:10.771Z,70.13
2023-02-01T20:25:42.782Z,70.50
2023-02-01T20:28:15.120Z,70.25
2023-02-01T20:30:46.896Z,69.79
2023-02-01T20:33:18.347Z,69.93
2023-02-01T20:35:48.355Z,69.98
2023-02-01T20:38:18.840Z,70.54
2023-02-01T20:40:50.824Z,69.82
2023-02-01T20:43:24.468Z,69.82
2023-02-01T20:45:54.387Z,69.90
2023-02-01T20:48:25.249Z,69.93
2023-02-01T20:50:55.871Z,71.37
2023-02-01T20:53:27.123Z,71.44
2023-02-01T20:56:00.492Z,71.65
2023-02-01T20:58:31.542Z,72.29
2023-02-01T21:01:01.359Z,73.56
2023-02-01T21:03:31.671Z,74.06
2023-02-01T21:06:02.225Z,74.83
2023-02-01T21:08:32.366Z,75.95
2023-02-01T21:11:05.315Z,76.08
2023-02-01T21:13:36.921Z,77.66
2023-02-01T21:16:10.884Z,77.20
2023-02-01T21:18:41.805Z,78.74
2023-02-01T21:21:12.373Z,79.23
2023-02-01T21:23:46.184Z,79.89
2023-02-01T21:26:18.954Z,81.11
2023-02-01T21:28:47.846Z,81.33
2023-02-01T21:31:17.268Z,83.25
2023-02-01T21:33:46.999Z,84.08
2023-02-01T21:36:19.275Z,84.35
2023-02-01T21:38:50.328Z,84.24
2023-02-01T21:41:38.409Z,85.44
2023-02-01T21:44:07.057Z,86.84
2023-02-01T21:46:35.555Z,86.97
2023-02-01T21:49:07.204Z,86.22
2023-02-01T21:51:38.130Z,88.12
2023-02-01T21:54:06.814Z,88.91
2023-02-01T21:56:36.513Z,88.03
2023-02-01T21:59:04.971Z,88.92
2023-02-01T22:01:33.378Z,88.87
2023-02-01T22:04:01.491Z,89.76
2023-02-01T22:06:31.912Z,89.61
2023-02-01T22:09:00.626Z,89.65
2023-02-01T22:11:29.559Z,90.61
2023-02-01T22:13:59.504Z,90.22
2023-02-01T22:16:27.639Z,90.77
2023-02-01T22:18:55.886Z,91.25
2023-02-01T22:21:25.016Z,92.25
2023-02-01T22:23:54.327Z,92.17
2023-02-01T22:26:23.815Z,93.14
2023-02-01T22:28:52.281Z,93.22
2023-02-01T22:31:22.285Z,93.26
2023-02-01T22:33:51.637Z,92.53
2023-02-01T22:36:20.272Z,93.58
2023-02-01T22:38:48.760Z,93.25
2023-02-01T22:41:16.808Z,93.65
2023-02-01T22:43:45.137Z,93.46
2023-02-01T22:46:15.337Z,92.98
2023-02-01T22:48:46.892Z,92.13
2023-02-01T22:51:17.470Z,92.95
2023-02-01T22:53:45.868Z,93.39
2023-02-01T22:56:16.999Z,93.59
2023-02-01T22:58:45.655Z,94.31
2023-02-01T23:01:16.383Z,94.50
2023-02-01T23:03:45.947Z,94.27
2023-02-01T23:06:18.587Z,94.88
2023-02-01T23:08:47.776Z,94.72
2023-02-01T23:11:15.810Z,95.19
2023-02-01T23:13:43.908Z,94.93
2023-02-01T23:16:13.635Z,94.56
2023-02-01T23:18:42.596Z,94.99
2023-02-01T23:21:15.341Z,94.90
2023-02-01T23:23:48.273Z,95.00
2023-02-01T23:26:16.535Z,94.97
2023-02-01T23:28:45.322Z,95.20
2023-02-01T23:31:15.134Z,95.33
2023-02-01T23:33:46.058Z,95.50
2023-02-01T23:36:16.901Z,95.53
2023-02-01T23:38:45.703Z,96.78
2023-02-01T23:41:15.391Z,97.74
2023-02-01T23:43:59.370Z,96.82
2023-02-01T23:46:31.789Z,97.03
2023-02-01T23:49:00.721Z,97.23
2023-02-01T23:51:30.947Z,97.96
2023-02-01T23:53:59.754Z,98.15
2023-02-01T23:56:31.325Z,99.64
2023-02-01T23:58:59.407Z,98.78
